Time;durP1;ratioP1;P1;durP2;ratioP2;P2;SDS_P1;SDS_P2;PMS_P1;PMS_P2;Temp;Humidity;BMP_temperature;BMP_pressure;BME280_temperature;BME280_humidity;BME280_pressure;Samples;Min_cycle;Max_cycle;Signal;HPM_P1;HPM_P2
2022/03/22 00:00:43;;;;;;;24.15;3.47;;;;;;;19.07;57.95;101266.19;7309930;19;130227;-39
2022/03/22 00:03:08;;;;;;;5.55;1.73;;;;;;;19.07;58.53;101276.59;7309419;19;137871;-35
2022/03/22 00:05:34;;;;;;;33.30;4.40;;;;;;;19.06;59.11;101266.28;7307236;19;154259;-41
2022/03/22 00:08:01;;;;;;;32.67;4.50;;;;;;;19.08;58.63;101267.88;7313752;19;130778;-40
2022/03/22 00:10:28;;;;;;;18.30;3.40;;;;;;;19.08;57.93;101264.44;7315722;19;129713;-40
2022/03/22 00:12:54;;;;;;;11.10;2.10;;;;;;;19.06;58.12;101267.13;7315567;19;129091;-37
2022/03/22 00:15:19;;;;;;;38.45;4.63;;;;;;;19.07;58.12;101260.97;7315699;19;128938;-37
2022/03/22 00:17:44;;;;;;;33.03;4.07;;;;;;;19.09;57.98;101268.69;7311649;19;158446;-42
2022/03/22 00:20:10;;;;;;;21.63;2.80;;;;;;;19.07;57.91;101266.19;7314505;19;130419;-39
2022/03/22 00:22:39;;;;;;;39.22;4.75;;;;;;;19.06;57.77;101269.72;7315074;19;129113;-40
2022/03/22 00:25:06;;;;;;;21.70;3.13;;;;;;;19.06;58.31;101268.88;7317332;19;129959;-37
2022/03/22 00:27:50;;;;;;;29.45;3.65;;;;;;;19.09;57.97;101264.34;7313908;19;131435;-37
2022/03/22 00:30:16;;;;;;;22.17;3.25;;;;;;;19.07;57.80;101266.19;7315577;19;130575;-35
2022/03/22 00:32:41;;;;;;;16.27;3.03;;;;;;;19.08;58.13;101264.44;7316636;19;129711;-37
2022/03/22 00:35:07;;;;;;;20.30;3.00;;;;;;;19.08;58.43;101261.81;7316576;19;129802;-39
2022/03/22 00:37:35;;;;;;;33.85;4.07;;;;;;;19.07;58.15;101265.34;7313964;19;129988;-36
2022/03/22 00:40:02;;;;;;;25.65;3.60;;;;;;;19.10;57.79;101257.38;7315525;19;129701;-37
2022/03/22 00:42:27;;;;;;;43.03;5.20;;;;;;;19.09;57.92;101259.13;7315658;19;129215;-37
2022/03/22 00:44:54;;;;;;;13.07;2.43;;;;;;;19.11;57.42;101261.66;7314320;19;154206;-40
2022/03/22 00:47:19;;;;;;;30.60;3.80;;;;;;;19.10;58.18;101259.97;7313414;19;130659;-38
2022/03/22 00:49:45;;;;;;;26.48;3.50;;;;;;;19.10;58.04;101260.81;7314056;19;158570;-34
2022/03/22 00:52:10;;;;;;;13.53;2.43;;;;;;;19.06;57.89;101254.09;7313309;19;154568;-31
2022/03/22 00:54:37;;;;;;;25.33;3.37;;;;;;;19.07;58.20;101249.72;7313091;19;154683;-38
2022/03/22 00:57:03;;;;;;;21.17;3.45;;;;;;;19.03;58.45;101249.03;7313079;19;129159;-38
2022/03/22 01:02:12;;;;;;;21.98;3.00;;;;;;;19.04;57.90;101250.72;7313837;19;128959;-37
2022/03/22 01:04:37;;;;;;;28.57;3.53;;;;;;;19.04;59.03;101244.69;7312124;19;154552;-36
2022/03/22 01:07:03;;;;;;;22.50;3.10;;;;;;;19.08;58.26;101246.19;7313274;19;130006;-39
2022/03/22 01:09:29;;;;;;;36.77;4.37;;;;;;;19.06;57.83;101248.88;7313908;19;130429;-39
2022/03/22 01:11:56;;;;;;;23.75;2.97;;;;;;;19.09;57.53;101243.47;7312012;19;147347;-31
2022/03/22 01:14:21;;;;;;;27.70;3.97;;;;;;;19.09;58.68;101246.09;7313241;19;128871;-37
2022/03/22 01:16:48;;;;;;;21.30;2.78;;;;;;;19.09;58.40;101253.91;7309377;19;158542;-37
2022/03/22 01:19:13;;;;;;;32.17;3.83;;;;;;;19.01;57.93;101230.03;7314528;19;130597;-32
2022/03/22 01:21:38;;;;;;;17.90;2.47;;;;;;;19.09;58.14;101243.47;7312738;19;128841;-36
2022/03/22 01:24:06;;;;;;;22.17;3.00;;;;;;;19.09;57.99;101243.47;7311880;19;154042;-32
2022/03/22 01:26:32;;;;;;;39.78;4.60;;;;;;;19.06;58.80;101246.25;7312198;19;131473;-36
2022/03/22 01:28:57;;;;;;;22.42;3.20;;;;;;;18.99;58.94;101231.88;7314375;19;129256;-39
2022/03/22 01:31:25;;;;;;;15.50;2.75;;;;;;;19.08;58.21;101239.22;7312809;19;129830;-35
2022/03/22 01:33:50;;;;;;;22.50;3.08;;;;;;;19.10;58.11;101242.59;7313927;19;129097;-36
2022/03/22 01:36:17;;;;;;;29.08;3.88;;;;;;;19.08;58.05;101234.00;7311485;19;158367;-36
2022/03/22 01:38:43;;;;;;;22.23;3.13;;;;;;;19.08;58.33;101236.59;7313973;19;130369;-34
2022/03/22 01:41:08;;;;;;;26.42;3.25;;;;;;;19.08;58.87;101238.34;7312999;19;128811;-35
2022/03/22 01:43:33;;;;;;;20.93;2.77;;;;;;;19.10;58.06;101228.69;7310873;19;154194;-33
2022/03/22 01:45:58;;;;;;;27.77;3.53;;;;;;;19.07;57.98;101227.09;7311582;19;159263;-35
2022/03/22 01:48:24;;;;;;;14.83;2.60;;;;;;;19.05;58.29;101234.16;7309580;19;159119;-33
2022/03/22 01:50:50;;;;;;;24.35;3.25;;;;;;;19.07;58.14;101224.47;7312818;19;129441;-44
2022/03/22 01:53:16;;;;;;;15.05;2.63;;;;;;;19.08;58.15;101231.38;7312196;19;149696;-39
2022/03/22 01:55:41;;;;;;;22.27;2.83;;;;;;;19.07;58.53;101229.69;7312179;19;130638;-35
2022/03/22 01:58:07;;;;;;;25.98;3.38;;;;;;;19.10;58.74;101231.31;7311694;19;130545;-36
2022/03/22 02:00:32;;;;;;;37.75;4.65;;;;;;;19.09;58.45;101222.63;7312574;19;130423;-35
2022/03/22 02:05:56;;;;;;;22.27;3.30;;;;;;;19.05;58.34;101220.28;7314077;19;129824;-40
2022/03/22 02:08:30;;;;;;;25.70;3.22;;;;;;;19.09;58.09;101227.84;7312011;19;129892;-32
2022/03/22 02:10:58;;;;;;;32.40;4.50;;;;;;;19.09;57.78;101216.56;7311806;19;130760;-34
2022/03/22 02:13:24;;;;;;;24.63;3.33;;;;;;;19.08;58.52;101218.34;7312435;19;129325;-39
2022/03/22 02:15:52;;;;;;;27.17;3.58;;;;;;;19.08;58.58;101218.34;7312776;19;130702;-30
2022/03/22 02:18:18;;;;;;;20.65;2.80;;;;;;;19.08;59.10;101218.34;7311061;19;130476;-41
2022/03/22 02:20:45;;;;;;;20.17;2.70;;;;;;;19.05;58.10;101215.91;7311779;19;130177;-42
2022/03/22 02:23:18;;;;;;;19.45;3.00;;;;;;;19.07;58.86;101208.84;7312426;19;129016;-33
2022/03/22 02:25:44;;;;;;;40.08;4.45;;;;;;;19.06;58.35;101212.38;7309989;19;129213;-40
2022/03/22 02:28:11;;;;;;;20.13;2.97;;;;;;;19.06;59.44;101214.13;7309651;19;132309;-37
2022/03/22 02:30:37;;;;;;;17.50;2.38;;;;;;;19.06;58.19;101217.59;7310897;19;130948;-34
2022/03/22 02:33:03;;;;;;;26.70;3.57;;;;;;;19.09;58.67;101213.97;7310797;19;131254;-35
2022/03/22 02:35:29;;;;;;;46.03;5.35;;;;;;;19.04;59.50;101222.03;7311176;19;158520;-35
2022/03/22 02:37:55;;;;;;;32.30;4.13;;;;;;;19.05;58.64;101217.69;7308945;19;130821;-35
2022/03/22 02:40:20;;;;;;;31.63;3.92;;;;;;;19.06;58.60;101217.59;7312511;19;129214;-38
2022/03/22 02:42:53;;;;;;;24.15;3.15;;;;;;;19.10;58.75;101218.28;7310254;19;154669;-38
2022/03/22 02:45:19;;;;;;;33.70;3.95;;;;;;;19.07;58.59;101223.66;7311817;19;130675;-37
2022/03/22 02:47:45;;;;;;;21.27;2.88;;;;;;;19.06;59.04;101221.94;7310436;19;129362;-31
2022/03/22 02:50:11;;;;;;;24.88;3.22;;;;;;;18.96;58.06;101205.97;7312454;19;129999;-35
2022/03/22 02:52:38;;;;;;;23.17;3.17;;;;;;;19.07;58.76;101219.25;7311603;19;129918;-31
2022/03/22 02:55:06;;;;;;;24.30;3.25;;;;;;;19.05;59.16;101215.91;7313021;19;130193;-40
2022/03/22 02:57:31;;;;;;;35.15;4.32;;;;;;;19.07;58.56;101224.47;7309045;19;129228;-36
2022/03/22 02:59:57;;;;;;;29.95;3.75;;;;;;;19.05;59.24;101221.13;7311669;19;130016;-35
2022/03/22 03:02:22;;;;;;;26.30;3.83;;;;;;;19.07;58.98;101219.25;7308907;19;154201;-35
2022/03/22 03:04:47;;;;;;;14.60;2.37;;;;;;;19.04;59.38;101235.06;7309472;19;156568;-39
2022/03/22 03:07:12;;;;;;;29.47;3.60;;;;;;;19.04;59.03;101224.66;7308464;19;158545;-32
2022/03/22 03:09:38;;;;;;;28.00;3.50;;;;;;;19.06;58.34;101233.22;7309083;19;155495;-39
2022/03/22 03:12:04;;;;;;;27.57;3.43;;;;;;;19.06;57.94;101233.22;7309887;19;129168;-38
2022/03/22 03:14:38;;;;;;;28.92;3.60;;;;;;;19.07;57.92;101228.88;7310733;19;129734;-43
2022/03/22 03:17:09;;;;;;;20.92;2.85;;;;;;;19.08;58.04;101236.59;7310065;19;133116;-40
2022/03/22 03:19:34;;;;;;;34.90;4.00;;;;;;;19.07;58.77;101229.69;7309644;19;129183;-34
2022/03/22 03:22:02;;;;;;;22.60;2.95;;;;;;;19.09;58.38;101225.25;7309099;19;154227;-44
2022/03/22 03:24:27;;;;;;;42.08;4.88;;;;;;;19.07;59.07;101234.09;7309963;19;130200;-31
2022/03/22 03:26:52;;;;;;;21.58;2.90;;;;;;;19.09;58.00;101237.41;7308255;19;158631;-35
2022/03/22 03:29:18;;;;;;;23.95;3.17;;;;;;;19.06;58.34;101238.44;7310333;19;146799;-35
2022/03/22 03:31:43;;;;;;;13.00;2.30;;;;;;;19.09;58.39;101234.81;7307861;19;154109;-39
2022/03/22 03:34:09;;;;;;;18.90;2.95;;;;;;;19.07;58.56;101229.69;7309529;19;146639;-38
2022/03/22 03:36:34;;;;;;;41.50;4.47;;;;;;;19.08;58.33;101228.78;7308723;19;129118;-40
2022/03/22 03:39:01;;;;;;;14.13;2.37;;;;;;;19.09;58.04;101227.00;7310358;19;154935;-33
2022/03/22 03:47:11;;;;;;;23.38;2.85;;;;;;;19.09;58.57;101227.84;7317651;19;129531;-31
2022/03/22 03:49:39;;;;;;;35.53;3.95;;;;;;;19.06;58.13;101233.22;7317289;19;129113;-34
2022/03/22 03:52:06;;;;;;;35.85;4.45;;;;;;;19.05;58.44;101228.09;7316318;19;129473;-32
2022/03/22 03:54:32;;;;;;;25.08;3.38;;;;;;;19.05;58.86;101231.56;7316857;19;130322;-38
2022/03/22 03:56:57;;;;;;;23.77;3.25;;;;;;;19.05;58.24;101233.31;7314691;19;131544;-38
2022/03/22 03:59:22;;;;;;;24.60;3.17;;;;;;;19.04;58.64;101229.84;7315952;19;153462;-38
2022/03/22 04:01:47;;;;;;;26.25;3.33;;;;;;;19.04;58.02;101227.25;7316411;19;129597;-35
2022/03/22 04:04:13;;;;;;;20.17;2.80;;;;;;;19.03;58.53;101225.59;7314422;19;158492;-39
2022/03/22 04:06:38;;;;;;;29.42;3.70;;;;;;;19.06;58.78;101230.63;7315321;19;147279;-32
2022/03/22 04:09:03;;;;;;;15.60;2.73;;;;;;;19.08;59.31;101223.56;7314506;19;154479;-42
2022/03/22 04:11:29;;;;;;;28.97;3.57;;;;;;;19.07;58.32;101224.47;7315301;19;152915;-35
2022/03/22 04:13:54;;;;;;;27.30;3.58;;;;;;;18.95;58.81;101214.75;7314944;19;129553;-33
2022/03/22 04:16:19;;;;;;;29.90;3.60;;;;;;;19.06;59.11;101233.22;7314633;19;158659;-36
2022/03/22 04:18:48;;;;;;;16.58;2.90;;;;;;;18.94;59.17;101213.03;7311736;19;128982;-36
2022/03/22 04:21:13;;;;;;;25.50;3.17;;;;;;;19.04;58.91;101229.03;7316804;19;129710;-39
2022/03/22 04:23:39;;;;;;;5.28;1.65;;;;;;;18.96;58.52;101216.41;7315501;19;131312;-37
2022/03/22 04:26:04;;;;;;;20.38;2.53;;;;;;;19.05;58.17;101231.56;7313689;19;158501;-38
2022/03/22 04:33:57;;;;;;;31.02;4.10;;;;;;;18.95;58.43;101217.34;7315415;19;129288;-33
2022/03/22 04:36:22;;;;;;;30.17;3.70;;;;;;;19.03;59.37;101238.63;7315129;19;130405;-36
2022/03/22 04:38:48;;;;;;;27.13;3.45;;;;;;;19.04;58.62;101229.03;7311505;19;154618;-35
2022/03/22 04:41:13;;;;;;;24.17;3.25;;;;;;;19.02;57.68;101231.69;7314722;19;155474;-37
2022/03/22 04:43:39;;;;;;;15.07;2.22;;;;;;;19.08;57.97;101236.59;7314035;19;129745;-37
2022/03/22 04:46:04;;;;;;;27.98;3.83;;;;;;;19.07;57.80;101240.13;7314778;19;129720;-32
2022/03/22 04:48:29;;;;;;;34.93;4.07;;;;;;;19.07;58.21;101234.91;7311689;19;154342;-36
2022/03/22 04:59:07;;;;;;;26.20;3.60;;;;;;;19.06;58.98;101248.03;7312176;19;130527;-40
2022/03/22 05:01:32;;;;;;;31.27;3.85;;;;;;;19.05;58.19;101252.41;7310225;19;154297;-33
2022/03/22 05:03:58;;;;;;;28.83;4.00;;;;;;;18.97;57.89;101244.13;7311688;19;154891;-32
2022/03/22 05:06:25;;;;;;;24.88;3.25;;;;;;;19.04;58.23;101255.94;7313025;19;158503;-29
2022/03/22 05:08:52;;;;;;;23.98;3.15;;;;;;;19.07;57.68;101249.72;7313793;19;129182;-40
2022/03/22 05:11:17;;;;;;;;;;;;;;;19.12;59.94;101258.94;7313474;19;130577;-38
2022/03/22 05:13:43;;;;;;;22.67;2.80;;;;;;;19.07;58.96;101250.53;7311524;19;159238;-34
2022/03/22 05:16:09;;;;;;;26.30;3.60;;;;;;;19.03;59.19;101256.00;7312178;19;158492;-33
2022/03/22 05:18:36;;;;;;;25.73;3.33;;;;;;;18.95;58.86;101240.81;7311354;19;129071;-37
2022/03/22 05:21:04;;;;;;;25.15;3.40;;;;;;;19.03;59.34;101261.22;7313391;19;129225;-35
2022/03/22 05:23:30;;;;;;;25.58;3.47;;;;;;;19.01;59.19;101248.28;7312863;19;130245;-34
2022/03/22 05:25:55;;;;;;;30.97;3.63;;;;;;;19.04;58.36;101258.53;7311116;19;130402;-43
2022/03/22 05:28:20;;;;;;;28.13;3.47;;;;;;;19.01;58.56;101250.03;7311194;19;129215;-41
2022/03/22 05:30:45;;;;;;;36.57;4.23;;;;;;;19.05;58.98;101259.38;7310918;19;154750;-36
2022/03/22 05:33:11;;;;;;;23.27;3.10;;;;;;;19.06;57.59;101268.88;7307002;19;159028;-35
2022/03/22 05:35:36;;;;;;;18.40;3.07;;;;;;;18.99;57.90;101252.72;7307673;19;158354;-41
2022/03/22 05:38:02;;;;;;;37.30;4.33;;;;;;;19.06;59.05;101259.28;7307189;19;147558;-35
2022/03/22 05:40:28;;;;;;;48.03;5.03;;;;;;;19.06;58.69;101254.09;7311485;19;129539;-38
2022/03/22 05:42:53;;;;;;;22.60;3.30;;;;;;;19.04;58.86;101261.13;7309663;19;158700;-34
2022/03/22 05:45:18;;;;;;;38.07;4.77;;;;;;;19.05;58.73;101262.84;7309148;19;159075;-47
2022/03/22 05:47:44;;;;;;;14.52;2.45;;;;;;;19.04;58.24;101261.13;7309452;19;129258;-34
2022/03/22 05:50:10;;;;;;;40.70;4.55;;;;;;;19.04;58.52;101255.94;7313046;19;129017;-35
2022/03/22 05:52:44;;;;;;;31.03;3.90;;;;;;;19.07;59.00;101258.38;7310619;19;129200;-35
2022/03/22 05:55:09;;;;;;;29.15;3.90;;;;;;;19.06;58.34;101264.50;7311104;19;130330;-38
2022/03/22 05:57:35;;;;;;;31.88;3.90;;;;;;;19.06;58.90;101263.66;7304649;19;137830;-37
2022/03/22 06:00:00;;;;;;;39.13;4.40;;;;;;;19.08;57.59;101257.44;7310716;19;154245;-34
2022/03/22 06:02:26;;;;;;;42.70;4.40;;;;;;;19.03;59.42;101259.47;7308167;19;158621;-37
2022/03/22 06:04:51;;;;;;;42.60;4.90;;;;;;;19.09;57.79;101255.66;7307768;19;130330;-31
2022/03/22 06:07:20;;;;;;;34.83;4.32;;;;;;;19.15;57.60;101264.03;7309053;19;129151;-42
2022/03/22 06:09:47;;;;;;;51.75;7.10;;;;;;;19.12;57.84;101264.16;7311924;19;129707;-42
2022/03/22 06:12:13;;;;;;;43.50;6.22;;;;;;;19.12;58.39;101264.16;7311326;19;130218;-33
2022/03/22 06:14:38;;;;;;;37.58;5.32;;;;;;;19.08;58.06;101262.66;7312348;19;130551;-39
2022/03/22 06:17:04;;;;;;;34.53;5.28;;;;;;;19.00;59.18;101249.22;7309368;19;129126;-35
2022/03/22 06:19:29;;;;;;;56.75;7.00;;;;;;;19.07;58.76;101260.16;7313337;19;128831;-34
2022/03/22 06:21:54;;;;;;;55.70;8.40;;;;;;;19.07;58.41;101265.34;7309892;19;158703;-34
2022/03/22 06:24:20;;;;;;;49.37;6.90;;;;;;;19.07;57.81;101260.16;7309668;19;156534;-39
2022/03/22 06:26:45;;;;;;;56.77;5.93;;;;;;;19.10;58.37;101259.97;7308573;19;154481;-34
2022/03/22 06:29:10;;;;;;;44.10;6.77;;;;;;;19.09;57.70;101261.72;7307769;19;154650;-34
2022/03/22 06:31:35;;;;;;;59.37;6.67;;;;;;;19.10;57.94;101270.41;7307707;19;159857;-36
2022/03/22 06:34:01;;;;;;;33.97;4.63;;;;;;;19.11;58.16;101272.06;7311343;19;158909;-35
2022/03/22 06:36:28;;;;;;;59.92;7.07;;;;;;;19.11;58.48;101272.91;7308721;19;129928;-32
2022/03/22 06:38:53;;;;;;;45.17;5.95;;;;;;;19.11;58.38;101265.09;7308304;19;129345;-31
2022/03/22 06:41:18;;;;;;;49.50;6.60;;;;;;;19.13;58.45;101270.22;7310078;19;157964;-36
2022/03/22 06:43:44;;;;;;;49.97;6.23;;;;;;;19.13;58.65;101265.88;7308869;19;160843;-34
2022/03/22 06:46:10;;;;;;;40.47;5.32;;;;;;;19.14;58.20;101274.50;7308933;19;129123;-35
2022/03/22 06:48:35;;;;;;;28.15;4.28;;;;;;;19.16;57.92;101267.44;7308624;19;129286;-36
2022/03/22 06:51:00;;;;;;;23.05;3.90;;;;;;;19.15;58.00;101273.59;7311801;19;129666;-42
2022/03/22 06:53:26;;;;;;;54.42;5.95;;;;;;;19.14;58.32;101267.53;7309173;19;159198;-33
2022/03/22 06:55:52;;;;;;;45.72;5.53;;;;;;;19.14;59.30;101272.75;7309522;19;154504;-35
2022/03/22 06:58:21;;;;;;;41.90;5.60;;;;;;;19.15;58.14;101273.59;7309126;19;129014;-38
2022/03/22 07:00:47;;;;;;;26.92;3.83;;;;;;;19.14;57.97;101275.34;7310528;19;130765;-35
2022/03/22 07:03:12;;;;;;;23.90;3.53;;;;;;;19.16;57.49;101289.16;7310791;19;129254;-31
2022/03/22 07:05:38;;;;;;;25.45;4.30;;;;;;;19.14;57.96;101283.19;7309104;19;155299;-34
2022/03/22 07:08:04;;;;;;;35.33;4.40;;;;;;;19.16;57.63;101285.69;7308785;19;129154;-37
2022/03/22 07:10:32;;;;;;;48.90;5.82;;;;;;;19.15;57.81;101281.44;7307889;19;130762;-35
2022/03/22 07:13:01;;;;;;;34.88;4.65;;;;;;;19.14;57.60;101293.59;7310480;19;130791;-36
2022/03/22 07:15:29;;;;;;;60.40;7.38;;;;;;;19.12;57.99;101290.22;7309399;19;129142;-35
2022/03/22 07:17:54;;;;;;;45.50;5.47;;;;;;;19.09;59.14;101279.13;7308138;19;129308;-35
2022/03/22 07:20:21;;;;;;;23.38;4.20;;;;;;;19.09;58.77;101284.34;7311019;19;130290;-38
2022/03/22 07:22:47;;;;;;;29.05;4.50;;;;;;;19.00;57.60;101274.44;7310140;19;130950;-41
2022/03/22 07:25:13;;;;;;;13.07;3.43;;;;;;;19.15;57.89;101295.31;7311227;19;129178;-39
2022/03/22 07:27:38;;;;;;;34.22;4.93;;;;;;;19.15;57.72;101289.25;7308767;19;129865;-39
2022/03/22 07:30:04;;;;;;;19.85;3.03;;;;;;;19.15;57.71;101297.06;7310830;19;130527;-33
2022/03/22 07:32:29;;;;;;;44.55;5.32;;;;;;;19.13;58.07;101291.09;7309799;19;130304;-35
2022/03/22 07:34:55;;;;;;;25.45;4.45;;;;;;;19.10;58.49;101291.25;7308579;19;154472;-35
2022/03/22 07:37:20;;;;;;;31.85;4.40;;;;;;;19.14;58.28;101304.03;7309100;19;128834;-36
2022/03/22 07:39:46;;;;;;;30.67;4.30;;;;;;;19.12;58.34;101303.28;7306977;19;159798;-40
2022/03/22 07:42:11;;;;;;;26.58;3.90;;;;;;;19.13;58.18;101307.56;7309836;19;130628;-35
2022/03/22 07:44:39;;;;;;;19.27;3.88;;;;;;;19.15;58.65;101305.75;7307799;19;155678;-39
2022/03/22 07:47:05;;;;;;;31.20;4.38;;;;;;;19.16;58.43;101298.75;7309629;19;129016;-40
2022/03/22 07:54:59;;;;;;;17.88;3.35;;;;;;;19.16;58.02;101307.41;7310743;19;128878;-33
2022/03/22 07:57:24;;;;;;;29.33;4.40;;;;;;;19.12;58.13;101305.06;7308449;19;128815;-35
2022/03/22 07:59:49;;;;;;;33.72;4.55;;;;;;;19.11;58.37;101298.13;7308426;19;157237;-38
2022/03/22 08:02:14;;;;;;;20.42;3.28;;;;;;;19.13;58.01;101307.56;7308044;19;131099;-32
2022/03/22 08:04:40;;;;;;;26.40;3.97;;;;;;;19.09;58.72;101293.00;7308815;19;154922;-37
2022/03/22 08:07:07;;;;;;;20.53;3.73;;;;;;;19.00;58.72;101290.91;7306354;19;154194;-40
2022/03/22 08:09:32;;;;;;;29.55;4.30;;;;;;;19.11;58.05;101304.22;7309764;19;130906;-37
2022/03/22 08:11:57;;;;;;;47.73;5.77;;;;;;;19.06;58.81;101308.81;7305428;19;157745;-39
2022/03/22 08:14:22;;;;;;;27.40;3.88;;;;;;;18.95;58.19;101287.72;7309345;19;140052;-37
2022/03/22 08:16:48;;;;;;;30.65;4.25;;;;;;;19.09;58.32;101295.63;7307206;19;153283;-36
2022/03/22 08:19:18;;;;;;;27.00;3.50;;;;;;;18.99;59.07;101284.00;7307212;19;148957;-45
2022/03/22 08:21:45;;;;;;;44.03;5.53;;;;;;;19.14;57.60;101319.69;7309526;19;130963;-33
2022/03/22 08:24:10;;;;;;;21.35;3.08;;;;;;;19.10;59.63;101299.06;7309653;19;129126;-36
2022/03/22 08:26:36;;;;;;;25.83;3.53;;;;;;;19.09;59.11;101305.19;7306572;19;154084;-34
2022/03/22 08:29:03;;;;;;;25.90;3.80;;;;;;;19.12;58.28;101311.09;7315983;19;129367;-42
2022/03/22 08:31:28;;;;;;;26.73;3.80;;;;;;;19.09;59.04;101295.63;7316827;19;129186;-39
2022/03/22 08:33:56;;;;;;;31.80;4.23;;;;;;;19.09;58.54;101297.38;7315109;19;155474;-36
2022/03/22 08:36:21;;;;;;;34.88;4.55;;;;;;;19.10;58.49;101297.31;7315335;19;129888;-38
2022/03/22 08:38:47;;;;;;;20.97;3.63;;;;;;;19.11;58.67;101293.78;7313239;19;159155;-37
2022/03/22 08:41:12;;;;;;;24.47;3.80;;;;;;;19.12;58.50;101305.88;7316338;19;131243;-39
2022/03/22 08:43:38;;;;;;;29.33;3.97;;;;;;;19.12;57.74;101300.66;7314530;19;154639;-38
2022/03/22 08:46:05;;;;;;;33.05;4.43;;;;;;;19.09;59.36;101289.56;7315943;19;153189;-38
2022/03/22 08:48:31;;;;;;;30.92;4.03;;;;;;;19.09;58.47;101299.97;7315133;19;129493;-42
2022/03/22 08:50:57;;;;;;;21.05;3.72;;;;;;;19.13;57.72;101301.50;7316336;19;130438;-39
2022/03/22 08:53:23;;;;;;;26.42;3.80;;;;;;;19.07;58.79;101305.28;7316354;19;129410;-38
2022/03/22 08:55:50;;;;;;;35.03;4.68;;;;;;;19.09;57.93;101287.81;7315243;19;128913;-40
2022/03/22 08:58:16;;;;;;;21.98;3.38;;;;;;;19.06;58.51;101285.38;7313509;19;129804;-40
2022/03/22 09:00:42;;;;;;;20.45;3.10;;;;;;;19.01;58.20;101265.66;7317584;19;131004;-39
2022/03/22 09:03:09;;;;;;;19.85;3.22;;;;;;;19.06;59.01;101287.97;7315646;19;129055;-42
2022/03/22 09:08:18;;;;;;;23.00;3.45;;;;;;;19.10;58.34;101281.69;7315444;19;129543;-43
2022/03/22 09:10:46;;;;;;;7.60;2.30;;;;;;;19.09;58.09;101306.03;7315140;19;158348;-37
2022/03/22 09:13:12;;;;;;;30.17;4.28;;;;;;;19.07;58.42;101313.09;7315363;19;129442;-41
2022/03/22 09:15:39;;;;;;;20.98;3.03;;;;;;;19.07;58.61;101302.66;7313928;19;129116;-37
2022/03/22 09:18:12;;;;;;;32.80;4.47;;;;;;;18.98;58.26;101281.47;7312744;19;130293;-37
2022/03/22 09:20:38;;;;;;;17.45;2.55;;;;;;;19.10;58.52;101297.31;7314189;19;130326;-36
2022/03/22 09:23:03;;;;;;;25.05;3.80;;;;;;;19.09;58.47;101297.38;7314834;19;129420;-37
2022/03/22 09:25:29;;;;;;;45.80;5.53;;;;;;;19.11;57.74;101298.13;7311629;19;154150;-36
2022/03/22 09:27:54;;;;;;;25.73;3.33;;;;;;;18.95;58.58;101274.69;7312628;19;159108;-38
2022/03/22 09:30:20;;;;;;;50.35;5.75;;;;;;;19.07;58.38;101287.03;7312224;19;137918;-38
2022/03/22 09:32:46;;;;;;;18.35;2.70;;;;;;;19.09;58.76;101289.56;7314647;19;128875;-40
2022/03/22 09:35:13;;;;;;;22.37;3.13;;;;;;;19.07;59.02;101300.06;7314373;19;129115;-39
2022/03/22 09:37:41;;;;;;;11.48;2.45;;;;;;;19.07;58.26;101281.81;7311538;19;129271;-38
2022/03/22 09:40:08;;;;;;;21.17;2.83;;;;;;;19.08;58.16;101277.47;7313681;19;129284;-40
2022/03/22 09:42:37;;;;;;;26.65;3.50;;;;;;;19.06;58.24;101280.16;7314382;19;129065;-40
2022/03/22 09:45:02;;;;;;;37.22;4.40;;;;;;;19.08;58.57;101274.84;7314299;19;130286;-40
2022/03/22 09:47:28;;;;;;;28.35;3.70;;;;;;;19.00;58.85;101264.00;7311456;19;130705;-41
2022/03/22 09:49:56;;;;;;;34.40;4.03;;;;;;;19.11;58.51;101267.72;7314352;19;131123;-39
2022/03/22 09:52:22;;;;;;;30.60;4.00;;;;;;;19.07;58.58;101270.56;7314076;19;129600;-42
2022/03/22 09:54:47;;;;;;;21.00;3.53;;;;;;;19.08;58.12;101273.09;7312726;19;128903;-38
2022/03/22 09:57:13;;;;;;;19.52;3.03;;;;;;;19.08;58.21;101269.63;7310572;19;130128;-41
2022/03/22 09:59:38;;;;;;;24.08;3.70;;;;;;;19.11;58.76;101282.50;7311568;19;129682;-39
2022/03/22 10:02:05;;;;;;;22.52;3.20;;;;;;;19.08;58.21;101260.06;7312838;19;129050;-40
2022/03/22 10:04:36;;;;;;;;;;;;;;;19.12;60.09;101265.97;7316057;19;129778;-35
2022/03/22 10:07:03;;;;;;;29.98;4.03;;;;;;;19.12;58.34;101269.38;7311366;19;130639;-36
2022/03/22 10:09:39;;;;;;;21.05;3.75;;;;;;;19.09;57.81;101263.50;7313388;19;130325;-40
2022/03/22 10:12:07;;;;;;;34.60;4.22;;;;;;;19.08;58.57;101254.00;7312323;19;130248;-40
2022/03/22 10:14:38;;;;;;;24.85;3.63;;;;;;;19.07;58.63;101260.16;7315732;19;129268;-36
2022/03/22 10:17:14;;;;;;;34.47;4.15;;;;;;;19.09;58.88;101259.13;7311790;19;130133;-38
2022/03/22 10:19:45;;;;;;;18.42;2.53;;;;;;;19.08;57.93;101252.25;7311871;19;130383;-37
2022/03/22 10:22:10;;;;;;;15.82;2.95;;;;;;;19.03;58.29;101258.63;7312306;19;129711;-42
2022/03/22 10:24:49;;;;;;;21.20;3.28;;;;;;;19.06;58.84;101258.44;7313334;19;128968;-40
2022/03/22 10:27:35;;;;;;;28.23;3.72;;;;;;;19.07;59.76;101247.94;7311334;19;129843;-36
2022/03/22 10:30:04;;;;;;;22.75;3.25;;;;;;;19.11;58.60;101257.28;7314066;19;130397;-39
2022/03/22 10:32:35;;;;;;;33.40;4.55;;;;;;;19.06;59.03;101254.09;7311672;19;130337;-42
2022/03/22 10:35:20;;;;;;;28.42;3.60;;;;;;;18.97;59.60;101228.50;7312260;19;129050;-40
2022/03/22 10:37:47;;;;;;;28.98;3.90;;;;;;;19.05;58.77;101249.81;7311202;19;129613;-41
2022/03/22 10:40:44;;;;;;;13.98;2.50;;;;;;;18.96;60.25;101229.44;7313350;19;134023;-40
2022/03/22 10:43:15;;;;;;;10.20;2.05;;;;;;;19.01;58.63;101223.97;7312463;19;129162;-40
2022/03/22 10:45:50;;;;;;;22.73;2.88;;;;;;;19.09;58.71;101232.22;7312520;19;128913;-40
2022/03/22 10:48:19;;;;;;;23.50;3.08;;;;;;;19.09;57.75;101232.22;7311675;19;130146;-38
2022/03/22 10:50:47;;;;;;;17.88;2.65;;;;;;;19.04;58.79;101229.84;7310389;19;129601;-38
2022/03/22 10:53:14;;;;;;;20.55;2.80;;;;;;;18.94;58.21;101213.03;7312329;19;128918;-39
2022/03/22 10:55:42;;;;;;;28.33;3.47;;;;;;;19.04;58.92;101229.84;7311354;19;129173;-37
2022/03/22 10:58:08;;;;;;;16.92;2.42;;;;;;;19.06;58.39;101241.06;7309235;19;129834;-39
2022/03/22 11:00:36;;;;;;;19.15;2.67;;;;;;;18.98;58.23;101217.19;7311480;19;129708;-38
2022/03/22 11:03:04;;;;;;;30.02;3.70;;;;;;;19.04;58.83;101229.84;7311199;19;128906;-36
2022/03/22 11:05:30;;;;;;;44.58;5.18;;;;;;;18.97;58.69;101214.66;7311805;19;129400;-40
2022/03/22 11:07:57;;;;;;;31.30;4.03;;;;;;;19.06;57.95;101227.16;7310648;19;129175;-39
2022/03/22 11:10:33;;;;;;;36.40;4.22;;;;;;;19.03;58.63;101225.59;7312286;19;130342;-38
2022/03/22 11:13:00;;;;;;;29.02;3.60;;;;;;;19.05;58.61;101221.13;7311460;19;129147;-41
2022/03/22 11:15:27;;;;;;;46.40;5.43;;;;;;;18.97;58.32;101199.84;7312597;19;128954;-41
2022/03/22 11:17:55;;;;;;;19.85;2.58;;;;;;;19.07;59.02;101206.22;7309951;19;130031;-39
2022/03/22 11:20:23;;;;;;;24.30;3.22;;;;;;;19.08;58.88;101215.75;7312007;19;129686;-37
2022/03/22 11:22:51;;;;;;;15.57;2.70;;;;;;;19.04;58.51;101198.59;7311535;19;129322;-40
2022/03/22 11:25:19;;;;;;;28.58;3.45;;;;;;;19.07;57.87;101203.63;7312227;19;129875;-38
2022/03/22 11:28:03;;;;;;;16.30;2.33;;;;;;;19.04;59.86;101192.56;7311035;19;132932;-42
2022/03/22 11:30:29;;;;;;;27.40;3.38;;;;;;;19.05;58.75;101183.78;7312376;19;130577;-40
2022/03/22 11:35:57;;;;;;;20.17;2.67;;;;;;;19.10;59.57;101184.38;7311937;19;129501;-42
2022/03/22 11:38:40;;;;;;;27.15;3.35;;;;;;;19.02;59.46;101174.34;7308451;19;130268;-39
2022/03/22 11:44:07;;;;;;;27.70;3.55;;;;;;;19.05;59.15;101179.44;7309764;19;130412;-41
2022/03/22 11:46:32;;;;;;;29.73;3.60;;;;;;;18.99;58.35;101151.09;7309345;19;129943;-41